createdAt,value
2018-10-12T00:02:11.631Z,76.83
2018-10-12T00:04:42.140Z,76.85
2018-10-12T00:07:11.508Z,77.00
2018-10-12T00:09:40.851Z,76.83
2018-10-12T00:12:10.163Z,76.52
2018-10-12T00:14:39.613Z,76.87
2018-10-12T00:17:08.940Z,76.62
2018-10-12T00:19:38.330Z,76.71
2018-10-12T00:22:07.722Z,76.51
2018-10-12T00:24:37.062Z,77.00
2018-10-12T00:27:06.605Z,76.55
2018-10-12T00:29:35.950Z,77.17
2018-10-12T00:32:05.682Z,76.85
2018-10-12T00:34:35.035Z,76.81
2018-10-12T00:37:04.368Z,77.08
2018-10-12T00:39:33.757Z,77.19
2018-10-12T00:42:03.367Z,77.27
2018-10-12T00:44:32.955Z,77.40
2018-10-12T00:47:02.283Z,77.79
2018-10-12T00:49:32.726Z,77.06
2018-10-12T00:52:02.421Z,77.58
2018-10-12T00:54:31.924Z,77.83
2018-10-12T00:57:01.431Z,77.73
2018-10-12T00:59:30.897Z,78.10
2018-10-12T01:02:00.762Z,78.41
2018-10-12T01:04:30.458Z,77.98
2018-10-12T01:06:59.792Z,78.12
2018-10-12T01:09:29.303Z,77.98
2018-10-12T01:12:10.565Z,77.89
2018-10-12T01:14:39.836Z,77.71
2018-10-12T01:17:09.193Z,77.72
2018-10-12T01:19:38.710Z,77.62
2018-10-12T01:22:08.126Z,77.59
2018-10-12T01:24:37.595Z,77.91
2018-10-12T01:27:06.896Z,78.26
2018-10-12T01:29:36.408Z,78.09
2018-10-12T01:32:05.830Z,77.96
2018-10-12T01:34:35.376Z,78.32
2018-10-12T01:37:04.909Z,78.21
2018-10-12T01:39:34.619Z,78.12
2018-10-12T01:42:05.016Z,78.10
2018-10-12T01:44:34.586Z,78.15
2018-10-12T01:47:03.919Z,77.71
2018-10-12T01:49:33.466Z,77.66
2018-10-12T01:52:02.714Z,77.32
2018-10-12T01:54:32.303Z,77.52
2018-10-12T01:57:01.662Z,77.12
2018-10-12T01:59:31.366Z,77.15
2018-10-12T02:02:00.701Z,77.36
2018-10-12T02:04:30.014Z,77.52
2018-10-12T02:06:59.437Z,77.79
2018-10-12T02:09:28.887Z,77.83
2018-10-12T02:11:58.454Z,77.84
2018-10-12T02:14:28.674Z,78.02
2018-10-12T02:16:59.852Z,78.31
2018-10-12T02:19:29.213Z,78.13
2018-10-12T02:21:59.219Z,78.59
2018-10-12T02:24:28.526Z,78.89
2018-10-12T02:26:57.897Z,78.67
2018-10-12T02:29:27.222Z,79.22
2018-10-12T02:31:56.635Z,79.39
2018-10-12T02:34:26.056Z,79.52
2018-10-12T02:36:55.677Z,79.63
2018-10-12T02:39:25.147Z,79.73
2018-10-12T02:41:54.798Z,79.64
2018-10-12T02:44:24.194Z,79.33
2018-10-12T02:47:00.115Z,79.93
2018-10-12T02:49:29.525Z,80.20
2018-10-12T02:51:58.914Z,80.24
2018-10-12T02:54:28.843Z,80.61
2018-10-12T02:56:58.229Z,80.92
2018-10-12T02:59:27.816Z,80.82
2018-10-12T03:01:57.296Z,80.84
2018-10-12T03:04:26.684Z,80.79
2018-10-12T03:06:56.042Z,80.50
2018-10-12T03:09:25.468Z,80.71
2018-10-12T03:11:54.816Z,80.70
2018-10-12T03:14:24.216Z,80.38
2018-10-12T03:16:53.566Z,80.20
2018-10-12T03:19:22.944Z,79.76
2018-10-12T03:21:55.566Z,79.78
2018-10-12T03:24:25.098Z,79.48
2018-10-12T03:26:54.674Z,78.95
2018-10-12T03:29:24.230Z,79.16
2018-10-12T03:31:54.765Z,78.86
2018-10-12T03:34:24.252Z,79.01
2018-10-12T03:36:53.882Z,79.47
2018-10-12T03:39:23.589Z,79.83
2018-10-12T03:41:53.585Z,79.86
2018-10-12T03:44:22.908Z,80.10
2018-10-12T03:46:52.415Z,80.00
2018-10-12T03:49:21.849Z,80.19
2018-10-12T03:51:51.361Z,80.03
2018-10-12T03:54:20.894Z,80.24
2018-10-12T03:56:52.009Z,80.53
2018-10-12T03:59:21.616Z,80.61
2018-10-12T04:01:51.157Z,81.02
2018-10-12T04:04:20.657Z,80.98
2018-10-12T04:06:50.339Z,81.32
2018-10-12T04:09:19.737Z,81.40
2018-10-12T04:11:49.377Z,81.56
2018-10-12T04:14:18.767Z,81.70
2018-10-12T04:16:48.621Z,81.85
2018-10-12T04:19:18.174Z,82.18
2018-10-12T04:21:47.670Z,82.05
2018-10-12T04:24:17.132Z,82.22
2018-10-12T04:26:46.992Z,82.52
2018-10-12T04:29:16.626Z,81.94
2018-10-12T04:31:46.747Z,82.22
2018-10-12T04:34:16.094Z,82.37
2018-10-12T04:36:45.787Z,82.32
2018-10-12T04:39:26.284Z,82.32
2018-10-12T04:41:55.797Z,82.17
2018-10-12T04:44:25.178Z,82.56
2018-10-12T04:46:54.869Z,83.12
2018-10-12T04:49:25.887Z,82.93
2018-10-12T04:51:56.719Z,83.19
2018-10-12T04:54:26.448Z,83.02
2018-10-12T04:57:00.442Z,83.00
2018-10-12T04:59:31.082Z,83.37
2018-10-12T05:02:00.596Z,83.84
2018-10-12T05:04:30.298Z,84.20
2018-10-12T05:06:59.874Z,84.45
2018-10-12T05:09:29.947Z,84.61
2018-10-12T05:11:59.660Z,84.42
2018-10-12T05:14:29.105Z,84.38
2018-10-12T05:16:59.435Z,84.67
2018-10-12T05:19:28.690Z,84.50
2018-10-12T05:21:58.520Z,84.73
2018-10-12T05:24:27.949Z,85.02
2018-10-12T05:26:57.303Z,84.85
2018-10-12T05:29:27.629Z,85.07
2018-10-12T05:31:57.169Z,85.61
2018-10-12T05:34:26.767Z,85.74
2018-10-12T05:36:56.311Z,85.68
2018-10-12T05:39:25.796Z,85.87
2018-10-12T05:41:55.541Z,85.46
2018-10-12T05:44:26.054Z,85.41
2018-10-12T05:46:55.457Z,85.41
2018-10-12T05:49:36.001Z,85.33
2018-10-12T05:52:05.810Z,85.30
2018-10-12T05:54:36.194Z,85.34
2018-10-12T05:57:06.890Z,85.71
2018-10-12T05:59:38.145Z,85.63
2018-10-12T06:02:08.859Z,85.31
2018-10-12T06:04:38.872Z,85.21
2018-10-12T06:07:08.840Z,85.60
2018-10-12T06:09:39.324Z,85.50
2018-10-12T06:12:09.728Z,85.12
2018-10-12T06:14:39.268Z,84.94
2018-10-12T06:17:10.787Z,84.42
2018-10-12T06:19:40.208Z,84.55
2018-10-12T06:22:09.915Z,83.21
2018-10-12T06:24:39.725Z,83.95
2018-10-12T06:27:09.464Z,83.87
2018-10-12T06:29:39.771Z,83.36
2018-10-12T06:32:09.385Z,83.78
2018-10-12T06:34:38.751Z,83.59
2018-10-12T06:37:09.191Z,83.59
2018-10-12T06:39:38.768Z,83.52
2018-10-12T06:42:08.250Z,83.52
2018-10-12T06:44:37.690Z,83.60
2018-10-12T06:47:07.024Z,83.32
2018-10-12T06:49:36.857Z,82.72
2018-10-12T06:52:06.231Z,82.51
2018-10-12T06:54:35.725Z,82.37
2018-10-12T06:57:06.278Z,82.10
2018-10-12T06:59:35.619Z,82.10
2018-10-12T07:02:05.126Z,82.00
2018-10-12T07:04:34.653Z,82.33
2018-10-12T07:07:04.304Z,82.22
2018-10-12T07:09:34.261Z,81.94
2018-10-12T07:12:03.916Z,81.21
2018-10-12T07:14:33.705Z,81.47
2018-10-12T07:17:03.240Z,81.81
2018-10-12T07:19:33.314Z,81.07
2018-10-12T07:22:03.475Z,80.91
2018-10-12T07:24:32.897Z,80.58
2018-10-12T07:27:02.522Z,80.14
2018-10-12T07:29:32.073Z,80.17
2018-10-12T07:32:01.942Z,79.66
2018-10-12T07:34:31.350Z,79.35
2018-10-12T07:37:15.055Z,78.86
2018-10-12T07:39:47.761Z,78.26
2018-10-12T07:42:17.301Z,77.55
2018-10-12T07:44:53.460Z,77.82
2018-10-12T07:47:29.018Z,77.07
2018-10-12T07:49:58.665Z,76.73
2018-10-12T07:52:28.271Z,76.40
2018-10-12T07:54:58.070Z,76.40
2018-10-12T07:57:32.410Z,75.98
2018-10-12T08:00:02.865Z,75.62
2018-10-12T08:02:32.644Z,75.76
2018-10-12T08:05:03.422Z,75.46
2018-10-12T08:07:33.868Z,74.83
2018-10-12T08:10:03.608Z,74.22
2018-10-12T08:12:33.155Z,73.95
2018-10-12T08:15:02.832Z,72.72
2018-10-12T08:17:32.422Z,72.31
2018-10-12T08:20:02.067Z,71.71
2018-10-12T08:22:31.435Z,72.04
2018-10-12T08:25:00.939Z,72.19
2018-10-12T08:27:31.055Z,71.17
2018-10-12T08:30:00.509Z,71.45
2018-10-12T08:32:30.590Z,71.04
2018-10-12T08:35:00.168Z,71.08
2018-10-12T08:37:29.513Z,70.77
2018-10-12T08:39:59.069Z,70.90
2018-10-12T08:42:28.552Z,71.33
2018-10-12T08:44:58.342Z,71.22
2018-10-12T08:47:29.023Z,71.25
2018-10-12T08:49:58.528Z,70.88
2018-10-12T08:52:28.055Z,70.41
2018-10-12T08:54:58.621Z,69.90
2018-10-12T08:57:28.287Z,69.21
2018-10-12T08:59:57.793Z,68.67
2018-10-12T09:02:27.138Z,68.83
2018-10-12T09:04:56.725Z,69.32
2018-10-12T09:07:26.236Z,68.24
2018-10-12T09:09:55.572Z,67.72
2018-10-12T09:12:25.657Z,67.58
2018-10-12T09:14:54.903Z,67.76
2018-10-12T09:17:24.873Z,67.58
2018-10-12T09:19:54.378Z,67.95
2018-10-12T09:22:24.454Z,67.55
2018-10-12T09:24:54.313Z,67.25
2018-10-12T09:27:23.716Z,67.35
2018-10-12T09:29:56.591Z,66.68
2018-10-12T09:32:26.104Z,66.50
2018-10-12T09:34:55.496Z,66.25
2018-10-12T09:37:26.066Z,66.06
2018-10-12T09:39:55.609Z,65.94
2018-10-12T09:42:25.204Z,65.87
2018-10-12T09:44:54.679Z,65.77
2018-10-12T09:47:24.339Z,65.48
2018-10-12T09:49:53.794Z,65.49
2018-10-12T09:52:23.267Z,64.56
2018-10-12T09:54:52.805Z,64.53
2018-10-12T09:57:26.384Z,65.14
2018-10-12T09:59:56.043Z,64.34
2018-10-12T10:02:30.961Z,64.47
2018-10-12T10:05:05.623Z,64.27
2018-10-12T10:07:35.091Z,64.50
2018-10-12T10:10:04.711Z,64.11
2018-10-12T10:12:34.134Z,63.84
2018-10-12T10:15:03.411Z,64.07
2018-10-12T10:17:32.833Z,63.79
2018-10-12T10:20:02.516Z,63.63
2018-10-12T10:22:32.210Z,63.29
2018-10-12T10:25:01.762Z,63.28
2018-10-12T10:27:31.788Z,62.81
2018-10-12T10:30:01.569Z,62.87
2018-10-12T10:32:31.587Z,62.03
2018-10-12T10:35:01.420Z,61.83
2018-10-12T10:37:30.833Z,61.36
2018-10-12T10:40:00.872Z,61.73
2018-10-12T10:42:30.548Z,61.37
2018-10-12T10:45:00.679Z,61.11
2018-10-12T10:47:30.162Z,61.07
2018-10-12T10:49:59.574Z,60.31
2018-10-12T10:52:29.185Z,59.76
2018-10-12T10:54:58.579Z,59.88
2018-10-12T10:57:28.031Z,60.21
2018-10-12T10:59:57.492Z,59.93
2018-10-12T11:02:27.132Z,59.51
2018-10-12T11:04:56.445Z,59.35
2018-10-12T11:07:26.320Z,58.94
2018-10-12T11:09:56.244Z,58.84
2018-10-12T11:12:25.935Z,58.10
2018-10-12T11:14:55.261Z,58.73
2018-10-12T11:17:25.674Z,58.94
2018-10-12T11:19:56.033Z,58.32
2018-10-12T11:22:25.933Z,58.04
2018-10-12T11:24:55.602Z,57.61
2018-10-12T11:27:25.304Z,56.94
2018-10-12T11:29:54.838Z,56.46
2018-10-12T11:32:24.816Z,57.17
2018-10-12T11:34:54.418Z,56.39
2018-10-12T11:37:25.072Z,56.17
2018-10-12T11:39:54.522Z,54.83
2018-10-12T11:42:28.505Z,54.67
2018-10-12T11:44:58.496Z,54.49
2018-10-12T11:47:28.143Z,53.87
2018-10-12T11:49:58.837Z,53.23
2018-10-12T11:52:30.046Z,52.38
2018-10-12T11:55:01.677Z,50.00
2018-10-12T11:57:31.318Z,48.19
2018-10-12T12:00:00.872Z,46.69
2018-10-12T12:02:30.648Z,46.20
2018-10-12T12:05:00.402Z,46.31
2018-10-12T12:07:32.302Z,46.85
2018-10-12T12:10:03.168Z,45.96
2018-10-12T12:12:33.656Z,45.14
2018-10-12T12:15:04.461Z,43.87
2018-10-12T12:17:37.449Z,42.87
2018-10-12T12:20:08.048Z,40.37
2018-10-12T12:22:39.324Z,40.43
2018-10-12T12:25:10.233Z,40.26
2018-10-12T12:27:40.897Z,39.27
2018-10-12T12:30:12.963Z,38.72
2018-10-12T12:32:44.126Z,38.60
2018-10-12T12:37:48.976Z,38.63
2018-10-12T12:40:24.052Z,37.54
2018-10-12T12:42:56.073Z,37.10
2018-10-12T12:45:28.079Z,37.11
2018-10-12T12:47:57.956Z,36.94
2018-10-12T12:50:27.911Z,36.43
2018-10-12T12:52:58.090Z,37.20
2018-10-12T12:55:28.551Z,36.99
2018-10-12T12:57:59.447Z,36.04
2018-10-12T13:00:29.466Z,34.38
2018-10-12T13:03:00.446Z,34.28
2018-10-12T13:05:30.269Z,33.97
2018-10-12T13:08:00.712Z,33.37
2018-10-12T13:10:30.306Z,33.76
2018-10-12T13:12:59.642Z,33.39
2018-10-12T13:15:29.972Z,33.01
2018-10-12T13:17:59.540Z,33.30
2018-10-12T13:20:29.551Z,33.70
2018-10-12T13:22:59.301Z,32.04
2018-10-12T13:25:29.335Z,32.66
2018-10-12T13:27:58.924Z,32.15
2018-10-12T13:30:28.550Z,32.34
2018-10-12T13:32:58.550Z,32.72
2018-10-12T13:35:29.393Z,33.75
2018-10-12T13:37:59.202Z,33.30
2018-10-12T13:40:28.677Z,34.55
2018-10-12T13:42:58.584Z,36.26
2018-10-12T13:45:27.888Z,35.69
2018-10-12T13:47:57.276Z,35.93
2018-10-12T13:50:26.786Z,35.87
2018-10-12T13:52:56.664Z,35.62
2018-10-12T13:55:26.799Z,35.88
2018-10-12T13:57:57.072Z,36.02
2018-10-12T14:00:27.035Z,36.04
2018-10-12T14:02:56.925Z,36.43
2018-10-12T14:05:28.878Z,37.22
2018-10-12T14:07:58.364Z,37.94
2018-10-12T14:10:30.968Z,38.72
2018-10-12T14:13:00.918Z,39.41
2018-10-12T14:15:30.484Z,39.34
2018-10-12T14:18:00.406Z,40.14
2018-10-12T14:20:30.227Z,40.50
2018-10-12T14:23:00.845Z,40.70
2018-10-12T14:25:33.511Z,42.02
2018-10-12T14:28:04.349Z,41.44
2018-10-12T14:30:35.026Z,41.13
2018-10-12T14:33:04.554Z,40.70
2018-10-12T14:35:34.349Z,40.86
2018-10-12T14:38:04.424Z,41.33
2018-10-12T14:40:34.142Z,41.74
2018-10-12T14:43:04.132Z,41.59
2018-10-12T14:45:34.480Z,41.61
2018-10-12T14:48:04.785Z,41.98
2018-10-12T14:50:35.604Z,41.98
2018-10-12T14:53:11.982Z,42.66
2018-10-12T14:55:42.102Z,42.13
2018-10-12T14:58:11.552Z,41.95
2018-10-12T15:00:40.972Z,42.17
2018-10-12T15:03:10.480Z,43.09
2018-10-12T15:05:40.980Z,42.46
2018-10-12T15:08:10.742Z,42.48
2018-10-12T15:10:40.651Z,42.07
2018-10-12T15:13:10.152Z,42.94
2018-10-12T15:15:39.613Z,42.80
2018-10-12T15:18:09.221Z,42.78
2018-10-12T15:20:39.815Z,42.95
2018-10-12T15:23:09.578Z,42.58
2018-10-12T15:25:38.946Z,42.78
2018-10-12T15:28:08.420Z,43.55
2018-10-12T15:30:38.177Z,42.97
2018-10-12T15:33:07.757Z,42.53
2018-10-12T15:35:38.370Z,42.87
2018-10-12T15:38:07.856Z,43.01
2018-10-12T15:40:38.117Z,43.74
2018-10-12T15:43:09.030Z,44.02
2018-10-12T15:45:38.719Z,44.47
2018-10-12T15:48:08.302Z,44.88
2018-10-12T15:50:38.791Z,45.76
2018-10-12T15:53:09.810Z,45.80
2018-10-12T15:55:42.861Z,45.85
2018-10-12T15:58:14.392Z,45.96
2018-10-12T16:00:46.899Z,45.32
2018-10-12T16:03:16.455Z,46.07
2018-10-12T16:05:46.103Z,46.36
2018-10-12T16:08:15.807Z,46.80
2018-10-12T16:10:46.055Z,46.74
2018-10-12T16:13:15.545Z,47.36
2018-10-12T16:15:45.000Z,47.09
2018-10-12T16:18:14.415Z,47.49
2018-10-12T16:20:44.011Z,49.84
2018-10-12T16:23:14.066Z,49.21
2018-10-12T16:26:21.085Z,51.31
2018-10-12T16:28:50.770Z,50.55
2018-10-12T16:31:20.270Z,51.16
2018-10-12T16:33:49.753Z,52.05
2018-10-12T16:36:22.934Z,52.02
2018-10-12T16:38:53.209Z,51.54
2018-10-12T16:41:22.866Z,51.74
2018-10-12T16:43:52.505Z,51.68
2018-10-12T16:46:22.167Z,51.62
2018-10-12T16:48:51.841Z,53.07
2018-10-12T16:51:26.462Z,53.28
2018-10-12T16:53:55.932Z,53.77
2018-10-12T16:56:26.178Z,53.26
2018-10-12T16:58:57.661Z,53.51
2018-10-12T17:01:27.495Z,53.45
2018-10-12T17:03:58.589Z,53.89
2018-10-12T17:06:31.197Z,53.69
2018-10-12T17:09:01.104Z,53.05
2018-10-12T17:11:32.096Z,52.55
2018-10-12T17:14:02.768Z,52.86
2018-10-12T17:16:33.656Z,52.76
2018-10-12T17:19:03.488Z,52.88
2018-10-12T17:21:34.868Z,52.60
2018-10-12T17:24:05.236Z,52.56
2018-10-12T17:26:35.074Z,52.60
2018-10-12T17:29:05.283Z,53.22
2018-10-12T17:31:36.110Z,54.05
2018-10-12T17:34:06.231Z,54.00
2018-10-12T17:36:41.300Z,54.29
2018-10-12T17:39:20.157Z,54.20
2018-10-12T17:41:51.304Z,54.85
2018-10-12T17:44:23.463Z,55.24
2018-10-12T17:46:54.220Z,54.92
2018-10-12T17:49:24.322Z,55.46
2018-10-12T17:51:56.462Z,55.33
2018-10-12T17:54:26.641Z,55.34
2018-10-12T17:56:57.968Z,55.43
2018-10-12T17:59:29.026Z,55.76
2018-10-12T18:02:02.827Z,56.27
2018-10-12T18:04:33.469Z,56.48
2018-10-12T18:07:05.529Z,56.59
2018-10-12T18:09:36.473Z,56.88
2018-10-12T18:12:06.166Z,57.05
2018-10-12T18:14:35.755Z,57.75
2018-10-12T18:17:12.128Z,57.85
2018-10-12T18:19:41.649Z,57.38
2018-10-12T18:22:11.152Z,58.44
2018-10-12T18:24:40.515Z,58.42
2018-10-12T18:27:09.852Z,58.07
2018-10-12T18:29:39.139Z,58.15
2018-10-12T18:32:08.954Z,57.75
2018-10-12T18:34:38.860Z,58.14
2018-10-12T18:37:08.246Z,58.25
2018-10-12T18:39:37.783Z,57.95
2018-10-12T18:42:07.253Z,58.14
2018-10-12T18:44:37.068Z,58.39
2018-10-12T18:47:07.155Z,58.41
2018-10-12T18:49:36.924Z,58.57
2018-10-12T18:52:06.426Z,58.41
2018-10-12T18:54:35.794Z,58.87
2018-10-12T18:57:05.308Z,59.03
2018-10-12T18:59:34.993Z,59.38
2018-10-12T19:02:04.545Z,59.33
2018-10-12T19:04:34.097Z,59.68
2018-10-12T19:07:04.154Z,59.67
2018-10-12T19:09:33.718Z,59.78
2018-10-12T19:12:03.391Z,59.44
2018-10-12T19:14:32.913Z,59.76
2018-10-12T19:17:02.722Z,60.02
2018-10-12T19:19:32.545Z,60.21
2018-10-12T19:22:01.908Z,60.55
2018-10-12T19:24:31.332Z,60.81
2018-10-12T19:27:00.930Z,61.10
2018-10-12T19:29:31.200Z,60.87
2018-10-12T19:32:00.613Z,61.15
2018-10-12T19:34:29.958Z,61.37
2018-10-12T19:36:59.884Z,61.46
2018-10-12T19:39:29.480Z,61.38
2018-10-12T19:41:59.109Z,61.69
2018-10-12T19:44:28.914Z,61.84
2018-10-12T19:46:58.461Z,61.96
2018-10-12T19:49:27.921Z,62.19
2018-10-12T19:51:57.330Z,62.18
2018-10-12T19:54:26.922Z,62.32
2018-10-12T19:56:56.255Z,62.76
2018-10-12T19:59:25.813Z,63.00
2018-10-12T20:01:55.302Z,63.38
2018-10-12T20:04:24.611Z,63.54
2018-10-12T20:06:54.084Z,63.85
2018-10-12T20:09:23.528Z,63.89
2018-10-12T20:11:52.947Z,64.14
2018-10-12T20:14:22.417Z,64.43
2018-10-12T20:16:51.970Z,64.57
2018-10-12T20:19:21.254Z,64.94
2018-10-12T20:21:50.583Z,65.24
2018-10-12T20:24:20.021Z,65.35
2018-10-12T20:26:49.446Z,65.41
2018-10-12T20:29:18.801Z,65.83
2018-10-12T20:31:48.235Z,65.92
2018-10-12T20:34:18.137Z,66.40
2018-10-12T20:36:47.793Z,66.50
2018-10-12T20:39:17.532Z,67.05
2018-10-12T20:41:47.158Z,66.80
2018-10-12T20:44:16.647Z,67.31
2018-10-12T20:46:46.130Z,67.32
2018-10-12T20:49:15.614Z,67.63
2018-10-12T20:51:45.028Z,67.95
2018-10-12T20:54:14.589Z,68.46
2018-10-12T20:56:43.921Z,68.55
2018-10-12T20:59:13.654Z,68.59
2018-10-12T21:01:43.037Z,68.91
2018-10-12T21:04:12.655Z,69.14
2018-10-12T21:06:42.061Z,69.38
2018-10-12T21:09:11.825Z,69.77
2018-10-12T21:11:41.542Z,69.73
2018-10-12T21:14:12.285Z,70.06
2018-10-12T21:16:41.760Z,70.17
2018-10-12T21:19:12.146Z,70.16
2018-10-12T21:21:41.615Z,70.23
2018-10-12T21:24:11.382Z,70.40
2018-10-12T21:26:40.874Z,70.66
2018-10-12T21:29:10.209Z,70.24
2018-10-12T21:31:39.673Z,70.44
2018-10-12T21:34:09.575Z,70.51
2018-10-12T21:36:39.107Z,70.56
2018-10-12T21:39:08.559Z,70.50
2018-10-12T21:41:38.294Z,70.37
2018-10-12T21:44:07.825Z,70.26
2018-10-12T21:46:37.454Z,70.36
2018-10-12T21:49:06.782Z,70.27
2018-10-12T21:51:36.135Z,70.21
2018-10-12T21:54:05.467Z,70.24
2018-10-12T21:56:34.885Z,70.06
2018-10-12T21:59:04.286Z,70.02
2018-10-12T22:01:33.852Z,70.07
2018-10-12T22:04:03.333Z,70.00
2018-10-12T22:06:33.089Z,69.94
2018-10-12T22:09:05.934Z,69.91
2018-10-12T22:11:35.299Z,69.92
2018-10-12T22:14:05.193Z,69.83
2018-10-12T22:16:34.548Z,69.97
2018-10-12T22:19:03.924Z,69.83
2018-10-12T22:21:33.385Z,69.98
2018-10-12T22:24:02.972Z,69.92
2018-10-12T22:26:32.499Z,70.09
2018-10-12T22:29:02.070Z,70.13
2018-10-12T22:31:31.536Z,70.22
2018-10-12T22:34:00.968Z,70.10
2018-10-12T22:36:31.294Z,70.15
2018-10-12T22:39:00.608Z,70.41
2018-10-12T22:41:30.195Z,70.35
2018-10-12T22:43:59.502Z,70.50
2018-10-12T22:46:29.333Z,70.39
2018-10-12T22:48:58.822Z,70.44
2018-10-12T22:51:28.161Z,70.35
2018-10-12T22:53:57.725Z,70.19
2018-10-12T22:56:27.177Z,70.29
2018-10-12T22:58:56.800Z,70.26
2018-10-12T23:01:26.249Z,70.54
2018-10-12T23:03:55.611Z,70.52
2018-10-12T23:06:25.016Z,70.52
2018-10-12T23:08:54.354Z,70.83
2018-10-12T23:11:23.649Z,70.78
2018-10-12T23:13:52.976Z,70.90
2018-10-12T23:16:22.373Z,70.89
2018-10-12T23:18:51.824Z,71.18
2018-10-12T23:21:21.944Z,71.30
2018-10-12T23:23:52.092Z,71.41
2018-10-12T23:26:21.496Z,71.33
2018-10-12T23:28:50.872Z,71.54
2018-10-12T23:31:20.613Z,71.55
2018-10-12T23:34:00.866Z,71.63
2018-10-12T23:36:31.516Z,71.81
2018-10-12T23:39:01.386Z,71.95
2018-10-12T23:41:31.126Z,71.82
2018-10-12T23:44:01.361Z,71.90
2018-10-12T23:46:31.386Z,72.05
2018-10-12T23:49:00.780Z,71.78
2018-10-12T23:51:31.019Z,71.59
2018-10-12T23:54:00.600Z,71.99
2018-10-12T23:56:29.864Z,72.02
2018-10-12T23:58:59.231Z,72.26
